createdAt,value
2023-03-03T12:01:53.951Z,168.00
2023-03-03T12:03:32.501Z,171.25
2023-03-03T12:05:12.288Z,162.00
2023-03-03T12:07:00.127Z,141.00
2023-03-03T12:08:54.238Z,166.50
2023-03-03T12:10:53.898Z,132.50
2023-03-03T12:12:45.201Z,156.50
2023-03-03T12:14:35.857Z,146.00
2023-03-03T12:16:20.051Z,139.00
2023-03-03T12:17:59.625Z,130.50
2023-03-03T12:19:53.080Z,121.25
2023-03-03T12:21:51.536Z,122.25
2023-03-03T12:23:39.485Z,138.75
2023-03-03T12:25:34.453Z,142.25
2023-03-03T12:27:15.809Z,157.50
2023-03-03T12:28:55.280Z,146.25
2023-03-03T12:30:31.791Z,150.50
2023-03-03T12:32:38.600Z,152.00
2023-03-03T12:37:25.261Z,162.75
2023-03-03T12:39:02.942Z,160.50
2023-03-03T12:41:31.817Z,152.25
2023-03-03T12:46:47.144Z,160.25
2023-03-03T12:48:29.563Z,158.25
2023-03-03T12:50:56.034Z,164.75
2023-03-03T12:52:38.346Z,162.50
2023-03-03T12:54:10.503Z,163.50
2023-03-03T12:56:00.525Z,167.75
2023-03-03T12:57:39.228Z,170.50
2023-03-03T12:59:20.041Z,129.00
2023-03-03T13:00:55.257Z,155.50
2023-03-03T13:02:39.854Z,147.00
2023-03-03T13:04:36.116Z,144.00
2023-03-03T13:06:19.964Z,139.00
2023-03-03T13:08:06.585Z,148.50
2023-03-03T13:09:44.798Z,147.75
2023-03-03T13:11:56.592Z,135.25
2023-03-03T13:13:54.552Z,159.00
2023-03-03T13:15:40.913Z,155.25
2023-03-03T13:17:21.258Z,160.75
2023-03-03T13:19:09.244Z,162.25
2023-03-03T13:21:05.570Z,157.00
2023-03-03T13:23:19.651Z,157.00
2023-03-03T13:25:18.084Z,156.25
2023-03-03T13:26:51.176Z,178.50
2023-03-03T13:28:35.285Z,180.00
2023-03-03T13:30:33.618Z,176.25
2023-03-03T13:32:33.844Z,173.50
2023-03-03T13:34:17.601Z,167.00
2023-03-03T13:35:54.157Z,158.50
2023-03-03T13:37:44.748Z,155.75
2023-03-03T13:39:24.458Z,167.00
2023-03-03T13:41:04.763Z,166.00
2023-03-03T13:42:47.988Z,173.25
2023-03-03T13:44:28.712Z,167.00
2023-03-03T13:46:02.123Z,155.75
2023-03-03T13:48:08.396Z,147.75
2023-03-03T13:50:09.148Z,141.25
2023-03-03T13:51:49.139Z,149.00
2023-03-03T13:53:42.099Z,162.00
2023-03-03T13:55:18.839Z,143.50
2023-03-03T13:57:23.458Z,127.50
2023-03-03T13:59:34.402Z,132.00
2023-03-03T14:01:33.272Z,136.00
2023-03-03T14:03:16.663Z,130.25
2023-03-03T14:04:54.465Z,139.50
2023-03-03T14:06:32.396Z,140.75
2023-03-03T14:08:09.985Z,134.25
2023-03-03T14:09:54.304Z,130.25
2023-03-03T14:12:21.193Z,144.25
2023-03-03T14:14:20.885Z,145.00
2023-03-03T14:16:05.906Z,135.75
2023-03-03T14:17:45.491Z,139.00
2023-03-03T14:19:20.473Z,112.00
2023-03-03T14:20:53.984Z,114.00
2023-03-03T14:23:02.643Z,112.40
2023-03-03T14:25:12.427Z,101.75
2023-03-03T14:26:47.722Z,100.50
2023-03-03T14:28:21.975Z,87.25
2023-03-03T14:29:53.940Z,94.25
2023-03-03T14:31:31.974Z,75.75
2023-03-03T14:33:09.956Z,81.25
2023-03-03T14:34:42.307Z,79.50
2023-03-03T14:36:16.236Z,85.25
2023-03-03T14:37:48.179Z,92.25
2023-03-03T14:39:38.007Z,94.75
2023-03-03T14:41:43.654Z,102.40
2023-03-03T14:43:34.436Z,112.20
2023-03-03T14:46:02.197Z,128.20
2023-03-03T14:47:42.931Z,131.50
2023-03-03T14:49:16.813Z,119.00
2023-03-03T14:50:50.073Z,131.00
2023-03-03T14:52:30.513Z,126.00
2023-03-03T14:54:02.556Z,116.60
2023-03-03T14:55:43.144Z,122.50
2023-03-03T14:58:05.157Z,127.50
2023-03-03T14:59:41.652Z,120.00
2023-03-03T15:01:35.650Z,109.40
2023-03-03T15:03:33.456Z,121.60
2023-03-03T15:05:29.340Z,104.60
2023-03-03T15:08:01.291Z,109.40
2023-03-03T15:10:29.450Z,98.80
2023-03-03T15:12:02.449Z,109.20
2023-03-03T15:13:34.968Z,108.80
2023-03-03T15:15:08.201Z,112.00
2023-03-03T15:16:45.105Z,115.25
2023-03-03T15:18:20.494Z,120.25
2023-03-03T15:19:58.661Z,105.75
2023-03-03T15:21:33.856Z,92.00
2023-03-03T15:23:18.598Z,98.20
2023-03-03T15:25:01.253Z,101.75
2023-03-03T15:26:55.675Z,106.00
2023-03-03T15:28:42.697Z,101.25
2023-03-03T15:30:33.669Z,98.75
2023-03-03T15:32:23.701Z,95.50
2023-03-03T15:34:06.821Z,80.75
2023-03-03T15:36:15.657Z,86.25
2023-03-03T15:38:07.872Z,69.00
2023-03-03T15:40:16.914Z,72.50
2023-03-03T15:42:01.486Z,78.75
2023-03-03T15:43:46.877Z,80.75
2023-03-03T15:45:40.563Z,77.50
2023-03-03T15:47:30.068Z,71.50
2023-03-03T15:49:10.413Z,75.25
2023-03-03T15:50:57.182Z,72.00
2023-03-03T15:52:49.892Z,70.75
2023-03-03T15:54:50.613Z,67.25
2023-03-03T15:56:48.120Z,69.25
2023-03-03T15:58:22.850Z,62.25
2023-03-03T16:00:01.874Z,62.25
2023-03-03T16:01:50.444Z,64.50
2023-03-03T16:03:36.902Z,61.60
2023-03-03T16:05:15.447Z,44.00
2023-03-03T16:07:37.071Z,64.50
2023-03-03T16:09:23.750Z,62.60
2023-03-03T16:11:08.641Z,64.60
2023-03-03T16:13:53.181Z,61.25
2023-03-03T16:16:04.622Z,60.50
2023-03-03T16:18:28.043Z,55.40
2023-03-03T16:20:16.086Z,51.80
2023-03-03T16:21:54.751Z,60.60
2023-03-03T16:23:52.628Z,60.60
2023-03-03T16:25:33.158Z,58.40
2023-03-03T16:27:26.189Z,63.60
2023-03-03T16:29:04.391Z,56.20
2023-03-03T16:30:59.562Z,60.20
2023-03-03T16:32:45.264Z,59.80
2023-03-03T16:34:57.718Z,57.80
2023-03-03T16:36:50.235Z,60.00
2023-03-03T16:38:31.500Z,58.80
2023-03-03T16:40:16.914Z,52.80
2023-03-03T16:42:05.078Z,54.80
2023-03-03T16:44:01.120Z,58.80
2023-03-03T16:45:39.920Z,53.40
2023-03-03T16:48:00.869Z,60.40
2023-03-03T16:49:39.409Z,49.20
2023-03-03T16:51:18.008Z,53.20
2023-03-03T16:53:52.062Z,55.80
2023-03-03T16:55:39.873Z,55.00
2023-03-03T16:58:00.550Z,58.80
2023-03-03T16:59:41.253Z,51.00
2023-03-03T17:01:55.294Z,58.40
2023-03-03T17:03:53.208Z,49.60
2023-03-03T17:06:14.528Z,57.80
2023-03-03T17:07:49.145Z,57.00
2023-03-03T17:09:46.570Z,49.60
2023-03-03T17:11:50.580Z,50.20
2023-03-03T17:13:35.851Z,56.60
2023-03-03T17:15:12.115Z,54.00
2023-03-03T17:17:15.780Z,51.40
2023-03-03T17:19:20.399Z,50.60
2023-03-03T17:20:55.047Z,54.00
2023-03-03T17:23:00.376Z,56.80
2023-03-03T17:25:03.103Z,51.80
2023-03-03T17:26:44.585Z,56.60
2023-03-03T17:28:45.046Z,53.00
2023-03-03T17:30:37.982Z,56.60
2023-03-03T17:32:35.208Z,55.80
2023-03-03T17:34:07.413Z,47.00
2023-03-03T17:35:42.209Z,48.00
2023-03-03T17:37:22.713Z,54.00
2023-03-03T17:39:13.287Z,50.20
2023-03-03T17:40:56.458Z,55.20
2023-03-03T17:43:08.300Z,50.80
2023-03-03T17:45:00.023Z,52.60
2023-03-03T17:47:08.674Z,49.60
2023-03-03T17:49:07.105Z,45.40
2023-03-03T17:50:51.153Z,35.80
2023-03-03T17:52:58.588Z,48.00
2023-03-03T17:55:04.743Z,50.60
2023-03-03T17:57:04.608Z,55.20
2023-03-03T18:01:47.150Z,42.80
2023-03-03T18:03:32.202Z,50.80
2023-03-03T18:06:29.763Z,50.40
2023-03-03T18:08:23.522Z,51.20
2023-03-03T18:10:27.491Z,56.80
2023-03-03T18:12:36.800Z,50.00
2023-03-03T18:17:42.761Z,50.00
2023-03-03T18:19:46.404Z,40.80
2023-03-03T18:21:49.745Z,48.40
2023-03-03T18:23:59.789Z,43.80
2023-03-03T18:25:58.011Z,50.20
2023-03-03T18:27:45.531Z,52.40
2023-03-03T18:30:08.052Z,41.60
2023-03-03T18:31:57.954Z,38.40
2023-03-03T18:34:04.101Z,56.60
2023-03-03T18:36:41.934Z,51.60
2023-03-03T18:38:40.564Z,47.40
2023-03-03T18:40:20.559Z,48.40
2023-03-03T18:42:18.023Z,49.60
2023-03-03T18:44:05.062Z,50.00
2023-03-03T18:48:58.590Z,54.80
2023-03-03T18:50:39.713Z,44.00
2023-03-03T18:52:33.281Z,46.20
2023-03-03T18:57:23.605Z,44.60
2023-03-03T18:58:57.580Z,49.00
2023-03-03T19:00:30.380Z,52.20
2023-03-03T19:02:50.720Z,44.00
2023-03-03T19:04:25.750Z,47.60
2023-03-03T19:06:02.730Z,49.80
2023-03-03T19:07:44.454Z,50.20
2023-03-03T19:09:20.688Z,45.60
2023-03-03T19:11:02.563Z,49.80
2023-03-03T19:12:43.300Z,50.60
2023-03-03T19:14:32.889Z,55.40
2023-03-03T19:16:38.028Z,48.20
2023-03-03T19:18:24.017Z,46.80
2023-03-03T19:20:21.619Z,42.00
2023-03-03T19:22:19.871Z,50.80
2023-03-03T19:26:56.298Z,68.50
2023-03-03T19:29:14.146Z,82.75
2023-03-03T19:31:02.103Z,85.25
2023-03-03T19:33:06.203Z,106.75
2023-03-03T19:34:41.631Z,110.80
2023-03-03T19:36:19.460Z,129.00
2023-03-03T19:38:37.577Z,122.50
2023-03-03T19:40:45.565Z,126.75
2023-03-03T19:42:45.038Z,133.75
2023-03-03T19:44:41.721Z,147.25
2023-03-03T19:47:05.586Z,138.50
2023-03-03T19:49:02.591Z,147.50
2023-03-03T19:51:03.751Z,139.75
2023-03-03T19:52:48.342Z,141.00
2023-03-03T19:54:59.272Z,136.75
2023-03-03T19:56:44.354Z,157.00
2023-03-03T19:58:21.054Z,130.00
2023-03-03T20:00:01.605Z,159.25
2023-03-03T20:02:01.635Z,151.50
2023-03-03T20:03:57.014Z,164.75
2023-03-03T20:05:34.503Z,178.00
2023-03-03T20:07:55.803Z,171.50
2023-03-03T20:09:56.611Z,181.25
2023-03-03T20:11:52.725Z,162.50
2023-03-03T20:13:43.702Z,188.25
2023-03-03T20:15:24.488Z,183.25
2023-03-03T20:18:20.656Z,176.50
2023-03-03T20:20:15.453Z,190.00
2023-03-03T20:22:23.572Z,176.00
2023-03-03T20:24:14.049Z,185.00
2023-03-03T20:25:49.010Z,172.50
2023-03-03T20:27:51.075Z,181.75
2023-03-03T20:29:46.262Z,185.75
2023-03-03T20:31:34.420Z,155.75
2023-03-03T20:33:59.314Z,162.25
2023-03-03T20:35:40.151Z,167.00
2023-03-03T20:37:28.720Z,155.25
2023-03-03T20:39:25.322Z,149.25
2023-03-03T20:41:06.677Z,135.00
2023-03-03T20:42:55.947Z,149.25
2023-03-03T20:44:46.136Z,157.50
2023-03-03T20:46:25.597Z,153.75
2023-03-03T20:48:00.932Z,189.25
2023-03-03T20:50:01.344Z,177.50
2023-03-03T20:51:45.664Z,164.50
2023-03-03T20:53:51.224Z,156.00
2023-03-03T20:55:41.936Z,146.00
2023-03-03T20:57:35.427Z,162.75
2023-03-03T20:59:24.819Z,156.75
2023-03-03T21:01:15.234Z,148.50
2023-03-03T21:03:06.596Z,140.25
2023-03-03T21:06:40.915Z,143.50
2023-03-03T21:08:12.752Z,140.25
2023-03-03T21:09:44.771Z,148.25
2023-03-03T21:11:18.786Z,146.00
2023-03-03T21:12:56.156Z,131.00
2023-03-03T21:14:37.925Z,133.75
2023-03-03T21:16:11.181Z,128.25
2023-03-03T21:17:43.401Z,138.00
2023-03-03T21:19:44.690Z,132.00
2023-03-03T21:21:16.581Z,138.00
2023-03-03T21:22:48.581Z,122.00
2023-03-03T21:24:20.735Z,145.50
2023-03-03T21:25:56.786Z,126.75
2023-03-03T21:27:54.001Z,122.75
2023-03-03T21:29:37.760Z,124.75
2023-03-03T21:31:10.774Z,121.00
2023-03-03T21:32:51.509Z,115.50
2023-03-03T21:34:35.893Z,114.00
2023-03-03T21:36:17.285Z,129.75
2023-03-03T21:38:01.812Z,149.25
2023-03-03T21:39:46.102Z,130.25
2023-03-03T21:41:18.421Z,119.50
2023-03-03T21:42:51.011Z,128.25
2023-03-03T21:44:41.558Z,115.50
2023-03-03T21:46:13.719Z,141.25
2023-03-03T21:47:45.898Z,153.75
2023-03-03T21:49:17.729Z,170.75
2023-03-03T21:50:49.994Z,173.00
2023-03-03T21:52:22.297Z,178.25
2023-03-03T21:53:55.626Z,198.75
2023-03-03T21:55:29.158Z,205.67
2023-03-03T21:57:28.742Z,192.67
2023-03-03T21:59:01.029Z,210.33
2023-03-03T22:00:35.988Z,212.00
2023-03-03T22:04:33.960Z,211.33
2023-03-03T22:06:08.031Z,218.67
2023-03-03T22:08:09.310Z,213.67
2023-03-03T22:10:15.931Z,211.33
2023-03-03T22:12:12.922Z,226.33
2023-03-03T22:13:51.286Z,211.33
2023-03-03T22:15:23.174Z,232.67
2023-03-03T22:16:56.189Z,203.00
2023-03-03T22:18:58.008Z,206.00
2023-03-03T22:20:34.035Z,213.67
2023-03-03T22:22:34.995Z,182.25
2023-03-03T22:24:08.911Z,199.33
2023-03-03T22:25:42.813Z,200.25
2023-03-03T22:27:15.647Z,197.75
2023-03-03T22:28:49.297Z,203.75
2023-03-03T22:30:45.882Z,204.00
2023-03-03T22:32:24.301Z,185.00
2023-03-03T22:33:56.277Z,191.50
2023-03-03T22:35:29.880Z,192.50
2023-03-03T22:37:30.815Z,183.75
2023-03-03T22:39:32.976Z,156.25
2023-03-03T22:41:14.967Z,157.00
2023-03-03T22:42:48.380Z,152.50
2023-03-03T22:44:21.360Z,172.75
2023-03-03T22:46:01.905Z,159.50
2023-03-03T22:48:05.777Z,162.75
2023-03-03T22:50:08.721Z,153.75
2023-03-03T22:51:40.786Z,149.75
2023-03-03T22:53:12.675Z,141.00
2023-03-03T22:54:44.699Z,156.75
2023-03-03T22:56:16.602Z,177.00
2023-03-03T22:57:50.644Z,174.25
2023-03-03T22:59:47.931Z,177.00
2023-03-03T23:01:21.578Z,166.75
2023-03-03T23:02:56.130Z,167.75
2023-03-03T23:04:58.395Z,163.00
2023-03-03T23:06:38.912Z,173.25
2023-03-03T23:08:17.787Z,163.75
2023-03-03T23:09:52.832Z,182.25
2023-03-03T23:12:17.989Z,170.25
2023-03-03T23:13:59.170Z,176.25
2023-03-03T23:15:36.353Z,165.75
2023-03-03T23:17:10.059Z,179.00
2023-03-03T23:18:46.537Z,161.50
2023-03-03T23:20:24.216Z,168.00
2023-03-03T23:22:02.079Z,150.75
2023-03-03T23:23:38.343Z,161.00
2023-03-03T23:26:01.002Z,144.75
2023-03-03T23:27:36.817Z,151.50
2023-03-03T23:29:08.598Z,145.50
2023-03-03T23:30:40.634Z,146.75
2023-03-03T23:32:13.683Z,122.50
